Canefield Airport

Cloudy with adjacent showers
28oC (82oF)

Cloudy with adjacent showers


Winds: West south westerly @ 02kts / 04km/h

Humidity: 80%

Barometric Pressure: 1013 mb

Accumulated Rainfall for July: 113.7 mm

Updated: 18:00 local time (22:00 UTC)

Douglas-Charles Airport

Cloudy and breezy with adjacent showers and slight haze
27oC (81oF)

Cloudy and breezy with adjacent showers and slight haze


Winds: East south easterly @ 12kts / 22km/h

Humidity: 88%

Barometric Pressure: 1015 mb

Accumulated Rainfall for July: 132.4 mm

Updated: 20:00 local time (00:00 UTC)

Satellite Imagery

Satellite Imagery
Click image for larger view. (Source: National Hurricane Center).

Aviation Routine Report (METAR)

Douglas-Charles: METAR TDPD 190000Z 11012KT 8000 BKN016TCU 27/24 Q1015=
Canefield: METAR TDCF 182200Z 25002KT 9999 SCT013 BKN014CB 28/24 Q1013 RETS=